sensor_id;sensor_type;location;lat;lon;timestamp;pressure;altitude;pressure_sealevel;temperature;humidity
17615;BME280;8926;49.720;6.576;2023-03-13T00:01:02;98969.19;;;11.14;74.69
17615;BME280;8926;49.720;6.576;2023-03-13T00:03:33;98953.41;;;11.15;74.51
17615;BME280;8926;49.720;6.576;2023-03-13T00:05:59;98953.53;;;11.14;74.44
17615;BME280;8926;49.720;6.576;2023-03-13T00:08:27;98946.63;;;11.13;74.61
17615;BME280;8926;49.720;6.576;2023-03-13T00:10:53;98947.25;;;11.16;74.78
17615;BME280;8926;49.720;6.576;2023-03-13T00:13:18;98942.22;;;11.13;75.28
17615;BME280;8926;49.720;6.576;2023-03-13T00:15:43;98949.03;;;11.16;75.41
17615;BME280;8926;49.720;6.576;2023-03-13T00:18:09;98932.50;;;11.15;76.10
17615;BME280;8926;49.720;6.576;2023-03-13T00:20:34;98928.22;;;11.14;76.09
17615;BME280;8926;49.720;6.576;2023-03-13T00:22:59;98925.72;;;11.13;76.98
17615;BME280;8926;49.720;6.576;2023-03-13T00:25:24;98924.03;;;11.12;77.05
17615;BME280;8926;49.720;6.576;2023-03-13T00:27:50;98926.97;;;11.07;77.76
17615;BME280;8926;49.720;6.576;2023-03-13T00:30:15;98914.03;;;11.06;78.33
17615;BME280;8926;49.720;6.576;2023-03-13T00:32:45;98912.34;;;11.05;78.36
17615;BME280;8926;49.720;6.576;2023-03-13T00:35:12;98907.22;;;11.03;78.62
17615;BME280;8926;49.720;6.576;2023-03-13T00:37:37;98907.97;;;11.05;79.54
17615;BME280;8926;49.720;6.576;2023-03-13T00:40:04;98909.44;;;10.97;80.04
17615;BME280;8926;49.720;6.576;2023-03-13T00:42:30;98908.00;;;10.93;80.47
17615;BME280;8926;49.720;6.576;2023-03-13T00:44:55;98896.94;;;10.89;81.66
17615;BME280;8926;49.720;6.576;2023-03-13T00:47:20;98899.88;;;10.84;81.68
17615;BME280;8926;49.720;6.576;2023-03-13T00:49:46;98895.09;;;10.78;82.76
17615;BME280;8926;49.720;6.576;2023-03-13T00:52:11;98899.38;;;10.79;82.84
17615;BME280;8926;49.720;6.576;2023-03-13T00:54:36;98888.63;;;10.71;82.96
17615;BME280;8926;49.720;6.576;2023-03-13T00:57:01;98894.06;;;10.68;83.74
17615;BME280;8926;49.720;6.576;2023-03-13T00:59:27;98890.34;;;10.60;84.78
17615;BME280;8926;49.720;6.576;2023-03-13T01:01:52;98888.56;;;10.60;84.49
17615;BME280;8926;49.720;6.576;2023-03-13T01:04:18;98877.59;;;10.55;85.48
17615;BME280;8926;49.720;6.576;2023-03-13T01:06:43;98871.66;;;10.53;85.64
17615;BME280;8926;49.720;6.576;2023-03-13T01:09:11;98875.53;;;10.47;85.96
17615;BME280;8926;49.720;6.576;2023-03-13T01:11:39;98864.44;;;10.44;86.25
17615;BME280;8926;49.720;6.576;2023-03-13T01:14:11;98865.59;;;10.40;87.20
17615;BME280;8926;49.720;6.576;2023-03-13T01:16:37;98862.50;;;10.35;87.16
17615;BME280;8926;49.720;6.576;2023-03-13T01:19:08;98857.28;;;10.35;87.50
17615;BME280;8926;49.720;6.576;2023-03-13T01:21:34;98846.31;;;10.30;88.16
17615;BME280;8926;49.720;6.576;2023-03-13T01:23:59;98841.53;;;10.24;89.34
17615;BME280;8926;49.720;6.576;2023-03-13T01:26:25;98841.91;;;10.17;89.74
17615;BME280;8926;49.720;6.576;2023-03-13T01:28:51;98842.75;;;10.18;89.15
17615;BME280;8926;49.720;6.576;2023-03-13T01:31:19;98831.94;;;10.11;90.16
17615;BME280;8926;49.720;6.576;2023-03-13T01:33:46;98824.19;;;10.10;91.01
17615;BME280;8926;49.720;6.576;2023-03-13T01:36:12;98826.19;;;10.06;90.70
17615;BME280;8926;49.720;6.576;2023-03-13T01:38:38;98820.22;;;10.04;91.10
17615;BME280;8926;49.720;6.576;2023-03-13T01:41:04;98818.56;;;10.03;91.84
17615;BME280;8926;49.720;6.576;2023-03-13T01:43:32;98813.34;;;10.03;91.20
17615;BME280;8926;49.720;6.576;2023-03-13T01:49:04;98802.06;;;10.03;93.17
17615;BME280;8926;49.720;6.576;2023-03-13T01:51:45;98797.69;;;10.03;92.18
17615;BME280;8926;49.720;6.576;2023-03-13T01:54:21;98796.03;;;10.02;93.51
17615;BME280;8926;49.720;6.576;2023-03-13T01:56:51;98792.38;;;10.05;93.85
17615;BME280;8926;49.720;6.576;2023-03-13T01:59:29;98797.47;;;10.06;94.63
17615;BME280;8926;49.720;6.576;2023-03-13T02:01:58;98783.28;;;10.10;93.20
17615;BME280;8926;49.720;6.576;2023-03-13T02:04:29;98790.16;;;10.11;94.07
17615;BME280;8926;49.720;6.576;2023-03-13T02:06:58;98788.50;;;10.10;95.01
17615;BME280;8926;49.720;6.576;2023-03-13T02:09:25;98772.84;;;10.10;94.28
17615;BME280;8926;49.720;6.576;2023-03-13T02:12:06;98767.38;;;10.13;94.50
17615;BME280;8926;49.720;6.576;2023-03-13T02:14:35;98769.03;;;10.14;96.17
17615;BME280;8926;49.720;6.576;2023-03-13T02:17:02;98761.34;;;10.13;96.72
17615;BME280;8926;49.720;6.576;2023-03-13T02:19:41;98765.28;;;10.18;96.65
17615;BME280;8926;49.720;6.576;2023-03-13T02:27:31;98744.22;;;10.22;98.57
17615;BME280;8926;49.720;6.576;2023-03-13T02:29:57;98744.94;;;10.24;99.26
17615;BME280;8926;49.720;6.576;2023-03-13T02:32:24;98734.28;;;10.27;99.21
17615;BME280;8926;49.720;6.576;2023-03-13T02:34:53;98736.06;;;10.26;100.00
17615;BME280;8926;49.720;6.576;2023-03-13T02:37:20;98737.53;;;10.30;100.00
17615;BME280;8926;49.720;6.576;2023-03-13T02:39:48;98736.47;;;10.33;100.00
17615;BME280;8926;49.720;6.576;2023-03-13T02:42:16;98734.38;;;10.38;100.00
17615;BME280;8926;49.720;6.576;2023-03-13T02:44:45;98723.94;;;10.38;100.00
17615;BME280;8926;49.720;6.576;2023-03-13T02:47:10;98727.00;;;10.43;100.00
17615;BME280;8926;49.720;6.576;2023-03-13T02:49:36;98732.00;;;10.46;100.00
17615;BME280;8926;49.720;6.576;2023-03-13T02:52:14;98717.78;;;10.50;100.00
17615;BME280;8926;49.720;6.576;2023-03-13T02:54:43;98722.59;;;10.56;100.00
17615;BME280;8926;49.720;6.576;2023-03-13T02:57:09;98719.03;;;10.57;100.00
17615;BME280;8926;49.720;6.576;2023-03-13T02:59:35;98718.59;;;10.63;100.00
17615;BME280;8926;49.720;6.576;2023-03-13T03:02:00;98707.88;;;10.66;100.00
17615;BME280;8926;49.720;6.576;2023-03-13T03:04:26;98699.09;;;10.67;100.00
17615;BME280;8926;49.720;6.576;2023-03-13T03:06:52;98700.31;;;10.74;100.00
17615;BME280;8926;49.720;6.576;2023-03-13T03:09:18;98690.72;;;10.75;100.00
17615;BME280;8926;49.720;6.576;2023-03-13T03:11:44;98701.78;;;10.78;100.00
17615;BME280;8926;49.720;6.576;2023-03-13T03:14:10;98682.31;;;10.82;100.00
17615;BME280;8926;49.720;6.576;2023-03-13T03:16:36;98698.69;;;10.84;100.00
17615;BME280;8926;49.720;6.576;2023-03-13T03:19:02;98694.19;;;10.86;100.00
17615;BME280;8926;49.720;6.576;2023-03-13T03:21:27;98689.59;;;10.90;100.00
17615;BME280;8926;49.720;6.576;2023-03-13T03:23:53;98688.75;;;10.90;100.00
17615;BME280;8926;49.720;6.576;2023-03-13T03:26:18;98676.38;;;10.92;100.00
17615;BME280;8926;49.720;6.576;2023-03-13T03:28:44;98686.59;;;10.95;100.00
17615;BME280;8926;49.720;6.576;2023-03-13T03:31:11;98683.03;;;10.96;100.00
17615;BME280;8926;49.720;6.576;2023-03-13T03:33:38;98680.44;;;10.96;100.00
17615;BME280;8926;49.720;6.576;2023-03-13T03:36:06;98675.69;;;11.01;100.00
17615;BME280;8926;49.720;6.576;2023-03-13T03:38:32;98689.72;;;11.00;100.00
17615;BME280;8926;49.720;6.576;2023-03-13T03:40:58;98682.59;;;11.02;100.00
17615;BME280;8926;49.720;6.576;2023-03-13T03:43:23;98680.47;;;11.07;100.00
17615;BME280;8926;49.720;6.576;2023-03-13T03:45:49;98673.09;;;11.12;100.00
17615;BME280;8926;49.720;6.576;2023-03-13T03:48:14;98670.63;;;11.10;100.00
17615;BME280;8926;49.720;6.576;2023-03-13T03:50:39;98671.09;;;11.15;100.00
17615;BME280;8926;49.720;6.576;2023-03-13T03:53:04;98688.56;;;11.15;100.00
17615;BME280;8926;49.720;6.576;2023-03-13T03:55:30;98686.66;;;11.17;100.00
17615;BME280;8926;49.720;6.576;2023-03-13T03:57:55;98691.91;;;11.17;100.00
17615;BME280;8926;49.720;6.576;2023-03-13T04:00:21;98691.63;;;11.20;100.00
17615;BME280;8926;49.720;6.576;2023-03-13T04:02:46;98689.75;;;11.22;100.00
17615;BME280;8926;49.720;6.576;2023-03-13T04:05:12;98681.91;;;11.22;100.00
17615;BME280;8926;49.720;6.576;2023-03-13T04:07:38;98680.94;;;11.23;100.00
17615;BME280;8926;49.720;6.576;2023-03-13T04:10:03;98693.78;;;11.26;100.00
17615;BME280;8926;49.720;6.576;2023-03-13T04:12:29;98690.94;;;11.29;100.00
17615;BME280;8926;49.720;6.576;2023-03-13T04:14:54;98697.84;;;11.30;100.00
17615;BME280;8926;49.720;6.576;2023-03-13T04:17:19;98682.16;;;11.30;100.00
17615;BME280;8926;49.720;6.576;2023-03-13T04:19:45;98681.91;;;11.33;100.00
17615;BME280;8926;49.720;6.576;2023-03-13T04:22:10;98669.56;;;11.35;100.00
17615;BME280;8926;49.720;6.576;2023-03-13T04:24:35;98662.66;;;11.34;100.00
17615;BME280;8926;49.720;6.576;2023-03-13T04:27:01;98657.19;;;11.37;100.00
17615;BME280;8926;49.720;6.576;2023-03-13T04:29:28;98651.03;;;11.38;100.00
17615;BME280;8926;49.720;6.576;2023-03-13T04:31:53;98646.75;;;11.37;100.00
17615;BME280;8926;49.720;6.576;2023-03-13T04:34:18;98631.06;;;11.37;100.00
17615;BME280;8926;49.720;6.576;2023-03-13T04:36:44;98636.16;;;11.39;100.00
17615;BME280;8926;49.720;6.576;2023-03-13T04:39:09;98645.78;;;11.38;100.00
17615;BME280;8926;49.720;6.576;2023-03-13T04:41:34;98648.28;;;11.40;100.00
17615;BME280;8926;49.720;6.576;2023-03-13T04:43:59;98655.75;;;11.44;100.00
17615;BME280;8926;49.720;6.576;2023-03-13T04:46:25;98652.06;;;11.47;100.00
17615;BME280;8926;49.720;6.576;2023-03-13T04:48:50;98644.94;;;11.49;100.00
17615;BME280;8926;49.720;6.576;2023-03-13T04:51:15;98641.97;;;11.53;100.00
17615;BME280;8926;49.720;6.576;2023-03-13T04:53:41;98637.94;;;11.61;100.00
17615;BME280;8926;49.720;6.576;2023-03-13T04:56:06;98636.25;;;11.60;100.00
17615;BME280;8926;49.720;6.576;2023-03-13T04:58:31;98632.47;;;11.64;100.00
17615;BME280;8926;49.720;6.576;2023-03-13T05:00:57;98628.66;;;11.68;100.00
17615;BME280;8926;49.720;6.576;2023-03-13T05:03:22;98632.66;;;11.72;100.00
17615;BME280;8926;49.720;6.576;2023-03-13T05:05:48;98629.59;;;11.78;100.00
17615;BME280;8926;49.720;6.576;2023-03-13T05:08:13;98637.22;;;11.81;100.00
17615;BME280;8926;49.720;6.576;2023-03-13T05:10:41;98646.59;;;11.83;100.00
17615;BME280;8926;49.720;6.576;2023-03-13T05:13:06;98650.06;;;11.84;100.00
17615;BME280;8926;49.720;6.576;2023-03-13T05:15:32;98634.13;;;11.87;100.00
17615;BME280;8926;49.720;6.576;2023-03-13T05:17:57;98623.16;;;11.93;100.00
17615;BME280;8926;49.720;6.576;2023-03-13T05:20:22;98615.75;;;11.98;100.00
17615;BME280;8926;49.720;6.576;2023-03-13T05:22:47;98606.56;;;12.04;100.00
17615;BME280;8926;49.720;6.576;2023-03-13T05:25:14;98607.88;;;12.09;100.00
17615;BME280;8926;49.720;6.576;2023-03-13T05:27:39;98605.72;;;12.14;100.00
17615;BME280;8926;49.720;6.576;2023-03-13T05:30:05;98602.28;;;12.14;100.00
17615;BME280;8926;49.720;6.576;2023-03-13T05:32:30;98602.38;;;12.12;100.00
17615;BME280;8926;49.720;6.576;2023-03-13T05:34:56;98593.47;;;12.15;100.00
17615;BME280;8926;49.720;6.576;2023-03-13T05:37:21;98600.25;;;12.17;100.00
17615;BME280;8926;49.720;6.576;2023-03-13T05:39:46;98597.75;;;12.16;100.00
17615;BME280;8926;49.720;6.576;2023-03-13T05:42:11;98600.25;;;12.17;100.00
17615;BME280;8926;49.720;6.576;2023-03-13T05:44:37;98607.00;;;12.20;100.00
17615;BME280;8926;49.720;6.576;2023-03-13T05:47:02;98598.03;;;12.22;100.00
17615;BME280;8926;49.720;6.576;2023-03-13T05:49:27;98604.94;;;12.23;100.00
17615;BME280;8926;49.720;6.576;2023-03-13T05:51:53;98595.31;;;12.24;100.00
17615;BME280;8926;49.720;6.576;2023-03-13T05:54:18;98594.34;;;12.25;100.00
17615;BME280;8926;49.720;6.576;2023-03-13T05:56:43;98593.97;;;12.30;100.00
17615;BME280;8926;49.720;6.576;2023-03-13T05:59:09;98590.41;;;12.31;100.00
17615;BME280;8926;49.720;6.576;2023-03-13T06:01:34;98597.06;;;12.35;100.00
17615;BME280;8926;49.720;6.576;2023-03-13T06:03:59;98601.78;;;12.41;100.00
17615;BME280;8926;49.720;6.576;2023-03-13T06:06:25;98594.91;;;12.40;100.00
17615;BME280;8926;49.720;6.576;2023-03-13T06:08:53;98600.59;;;12.45;100.00
17615;BME280;8926;49.720;6.576;2023-03-13T06:11:18;98600.59;;;12.45;100.00
17615;BME280;8926;49.720;6.576;2023-03-13T06:13:43;98611.78;;;12.47;99.85
17615;BME280;8926;49.720;6.576;2023-03-13T06:16:08;98591.25;;;12.52;99.50
17615;BME280;8926;49.720;6.576;2023-03-13T06:18:35;98612.91;;;12.54;99.21
17615;BME280;8926;49.720;6.576;2023-03-13T06:21:01;98603.13;;;12.56;99.05
17615;BME280;8926;49.720;6.576;2023-03-13T06:23:27;98608.25;;;12.57;98.94
17615;BME280;8926;49.720;6.576;2023-03-13T06:25:52;98608.13;;;12.59;98.75
17615;BME280;8926;49.720;6.576;2023-03-13T06:28:18;98613.22;;;12.61;98.27
17615;BME280;8926;49.720;6.576;2023-03-13T06:30:43;98604.41;;;12.62;98.76
17615;BME280;8926;49.720;6.576;2023-03-13T06:33:09;98607.88;;;12.62;98.26
17615;BME280;8926;49.720;6.576;2023-03-13T06:35:34;98613.81;;;12.64;98.17
17615;BME280;8926;49.720;6.576;2023-03-13T06:38:00;98612.72;;;12.67;97.75
17615;BME280;8926;49.720;6.576;2023-03-13T06:40:25;98616.44;;;12.64;97.90
17615;BME280;8926;49.720;6.576;2023-03-13T06:42:50;98629.53;;;12.64;97.92
17615;BME280;8926;49.720;6.576;2023-03-13T06:45:15;98619.88;;;12.65;98.00
17615;BME280;8926;49.720;6.576;2023-03-13T06:47:41;98624.03;;;12.67;97.92
17615;BME280;8926;49.720;6.576;2023-03-13T06:50:06;98621.88;;;12.72;97.38
17615;BME280;8926;49.720;6.576;2023-03-13T06:52:32;98618.25;;;12.73;97.14
17615;BME280;8926;49.720;6.576;2023-03-13T06:54:57;98615.81;;;12.72;97.42
17615;BME280;8926;49.720;6.576;2023-03-13T06:57:22;98620.47;;;12.68;97.35
17615;BME280;8926;49.720;6.576;2023-03-13T06:59:48;98619.94;;;12.74;97.21
17615;BME280;8926;49.720;6.576;2023-03-13T07:02:15;98605.88;;;12.75;96.89
17615;BME280;8926;49.720;6.576;2023-03-13T07:04:40;98605.16;;;12.73;97.38
17615;BME280;8926;49.720;6.576;2023-03-13T07:07:05;98605.16;;;12.73;97.55
17615;BME280;8926;49.720;6.576;2023-03-13T07:09:31;98600.09;;;12.72;97.55
17615;BME280;8926;49.720;6.576;2023-03-13T07:11:56;98604.50;;;12.71;97.48
17615;BME280;8926;49.720;6.576;2023-03-13T07:14:23;98604.50;;;12.71;97.50
17615;BME280;8926;49.720;6.576;2023-03-13T07:16:48;98607.78;;;12.73;97.89
17615;BME280;8926;49.720;6.576;2023-03-13T07:19:14;98607.53;;;12.76;96.97
17615;BME280;8926;49.720;6.576;2023-03-13T07:21:40;98605.63;;;12.78;97.53
17615;BME280;8926;49.720;6.576;2023-03-13T07:24:06;98603.44;;;12.83;96.72
17615;BME280;8926;49.720;6.576;2023-03-13T07:26:31;98595.78;;;12.91;96.19
17615;BME280;8926;49.720;6.576;2023-03-13T07:28:56;98602.69;;;12.93;95.91
17615;BME280;8926;49.720;6.576;2023-03-13T07:31:22;98594.56;;;12.96;95.94
17615;BME280;8926;49.720;6.576;2023-03-13T07:33:52;98594.31;;;12.99;95.69
17615;BME280;8926;49.720;6.576;2023-03-13T07:36:18;98586.44;;;12.99;95.65
17615;BME280;8926;49.720;6.576;2023-03-13T07:38:47;98597.59;;;13.01;96.07
17615;BME280;8926;49.720;6.576;2023-03-13T07:41:13;98594.97;;;13.01;95.75
17615;BME280;8926;49.720;6.576;2023-03-13T07:43:38;98591.38;;;13.02;95.45
17615;BME280;8926;49.720;6.576;2023-03-13T07:46:05;98587.81;;;13.03;94.89
17615;BME280;8926;49.720;6.576;2023-03-13T07:48:36;98587.81;;;13.03;95.12
17615;BME280;8926;49.720;6.576;2023-03-13T07:51:03;98586.16;;;13.02;95.39
17615;BME280;8926;49.720;6.576;2023-03-13T07:53:28;98588.78;;;13.02;95.19
17615;BME280;8926;49.720;6.576;2023-03-13T07:58:21;98587.81;;;13.03;94.79
17615;BME280;8926;49.720;6.576;2023-03-13T08:00:46;98587.56;;;13.06;95.10
17615;BME280;8926;49.720;6.576;2023-03-13T08:03:12;98588.38;;;13.06;94.75
17615;BME280;8926;49.720;6.576;2023-03-13T08:05:37;98578.03;;;13.05;94.99
17615;BME280;8926;49.720;6.576;2023-03-13T08:08:03;98573.75;;;13.04;94.92
17615;BME280;8926;49.720;6.576;2023-03-13T08:10:29;98572.06;;;13.03;94.76
17615;BME280;8926;49.720;6.576;2023-03-13T08:12:54;98573.47;;;13.07;94.76
17615;BME280;8926;49.720;6.576;2023-03-13T08:15:20;98565.88;;;13.04;95.05
17615;BME280;8926;49.720;6.576;2023-03-13T08:17:50;98565.88;;;13.04;95.02
17615;BME280;8926;49.720;6.576;2023-03-13T08:20:16;98563.94;;;13.06;94.69
17615;BME280;8926;49.720;6.576;2023-03-13T08:22:44;98569.06;;;13.07;95.18
17615;BME280;8926;49.720;6.576;2023-03-13T08:25:10;98568.25;;;13.07;95.03
17615;BME280;8926;49.720;6.576;2023-03-13T08:27:36;98563.00;;;13.07;95.34
17615;BME280;8926;49.720;6.576;2023-03-13T08:30:01;98559.16;;;13.11;95.05
17615;BME280;8926;49.720;6.576;2023-03-13T08:32:26;98558.06;;;13.13;95.59
17615;BME280;8926;49.720;6.576;2023-03-13T08:34:51;98553.78;;;13.12;95.25
17615;BME280;8926;49.720;6.576;2023-03-13T08:37:17;98549.50;;;13.11;95.60
17615;BME280;8926;49.720;6.576;2023-03-13T08:39:42;98545.09;;;13.12;95.76
17615;BME280;8926;49.720;6.576;2023-03-13T08:42:10;98542.72;;;13.09;95.57
17615;BME280;8926;49.720;6.576;2023-03-13T08:44:38;98541.75;;;13.10;96.25
17615;BME280;8926;49.720;6.576;2023-03-13T08:47:05;98543.41;;;13.11;95.81
17615;BME280;8926;49.720;6.576;2023-03-13T08:49:30;98534.59;;;13.12;95.59
17615;BME280;8926;49.720;6.576;2023-03-13T08:51:56;98525.75;;;13.13;95.76
17615;BME280;8926;49.720;6.576;2023-03-13T08:54:21;98535.75;;;13.19;95.36
17615;BME280;8926;49.720;6.576;2023-03-13T08:56:46;98532.19;;;13.20;95.17
17615;BME280;8926;49.720;6.576;2023-03-13T08:59:11;98529.41;;;13.21;95.11
17615;BME280;8926;49.720;6.576;2023-03-13T09:01:39;98525.28;;;13.19;95.20
17615;BME280;8926;49.720;6.576;2023-03-13T09:04:05;98514.78;;;13.19;95.50
17615;BME280;8926;49.720;6.576;2023-03-13T09:06:36;98510.38;;;13.19;95.93
17615;BME280;8926;49.720;6.576;2023-03-13T09:09:03;98512.59;;;13.24;95.44
17615;BME280;8926;49.720;6.576;2023-03-13T09:11:29;98510.22;;;13.21;95.51
17615;BME280;8926;49.720;6.576;2023-03-13T09:13:55;98502.09;;;13.24;95.15
17615;BME280;8926;49.720;6.576;2023-03-13T09:16:28;98499.88;;;13.29;94.21
17615;BME280;8926;49.720;6.576;2023-03-13T09:18:55;98504.59;;;13.35;94.15
17615;BME280;8926;49.720;6.576;2023-03-13T09:21:26;98500.88;;;13.38;93.37
17615;BME280;8926;49.720;6.576;2023-03-13T09:23:52;98500.59;;;13.41;93.41
17615;BME280;8926;49.720;6.576;2023-03-13T09:26:18;98490.38;;;13.38;92.82
17615;BME280;8926;49.720;6.576;2023-03-13T09:28:44;98497.41;;;13.37;93.17
17615;BME280;8926;49.720;6.576;2023-03-13T09:31:18;98495.94;;;13.44;92.81
17615;BME280;8926;49.720;6.576;2023-03-13T09:33:45;98499.94;;;13.48;92.31
17615;BME280;8926;49.720;6.576;2023-03-13T09:36:11;98503.66;;;13.46;91.87
17615;BME280;8926;49.720;6.576;2023-03-13T09:38:37;98496.63;;;13.46;91.47
17615;BME280;8926;49.720;6.576;2023-03-13T09:41:13;98494.41;;;13.51;91.30
17615;BME280;8926;49.720;6.576;2023-03-13T09:43:48;98492.75;;;13.50;91.12
17615;BME280;8926;49.720;6.576;2023-03-13T09:46:24;98494.13;;;13.54;90.70
17615;BME280;8926;49.720;6.576;2023-03-13T09:48:55;98487.91;;;13.55;90.36
17615;BME280;8926;49.720;6.576;2023-03-13T09:51:34;98489.16;;;13.61;90.29
17615;BME280;8926;49.720;6.576;2023-03-13T09:54:23;98478.66;;;13.61;89.79
17615;BME280;8926;49.720;6.576;2023-03-13T09:56:57;98486.13;;;13.66;89.78
17615;BME280;8926;49.720;6.576;2023-03-13T10:02:32;98473.44;;;13.71;89.18
17615;BME280;8926;49.720;6.576;2023-03-13T10:05:07;98468.19;;;13.71;89.06
17615;BME280;8926;49.720;6.576;2023-03-13T10:07:34;98475.09;;;13.72;88.45
17615;BME280;8926;49.720;6.576;2023-03-13T10:10:01;98472.91;;;13.77;88.72
17615;BME280;8926;49.720;6.576;2023-03-13T10:12:28;98466.81;;;13.76;88.34
17615;BME280;8926;49.720;6.576;2023-03-13T10:17:34;98469.97;;;13.80;88.19
17615;BME280;8926;49.720;6.576;2023-03-13T10:22:35;98465.41;;;13.82;87.84
17615;BME280;8926;49.720;6.576;2023-03-13T10:25:34;98469.97;;;13.80;88.04
17615;BME280;8926;49.720;6.576;2023-03-13T10:28:00;98461.81;;;13.83;87.99
17615;BME280;8926;49.720;6.576;2023-03-13T10:30:30;98465.13;;;13.85;87.89
17615;BME280;8926;49.720;6.576;2023-03-13T10:33:00;98439.44;;;13.88;87.69
17615;BME280;8926;49.720;6.576;2023-03-13T10:35:42;98446.22;;;13.91;88.17
17615;BME280;8926;49.720;6.576;2023-03-13T10:38:10;98448.38;;;14.05;88.04
17615;BME280;8926;49.720;6.576;2023-03-13T10:40:36;98434.69;;;14.11;88.13
17615;BME280;8926;49.720;6.576;2023-03-13T10:43:12;98430.25;;;14.21;87.96
17615;BME280;8926;49.720;6.576;2023-03-13T10:45:37;98418.31;;;14.37;86.94
17615;BME280;8926;49.720;6.576;2023-03-13T10:50:45;98424.13;;;14.50;86.27
17615;BME280;8926;49.720;6.576;2023-03-13T10:56:09;98409.94;;;14.60;85.65
17615;BME280;8926;49.720;6.576;2023-03-13T10:58:44;98402.31;;;14.67;85.58
17615;BME280;8926;49.720;6.576;2023-03-13T11:01:26;98392.19;;;14.72;85.45
17615;BME280;8926;49.720;6.576;2023-03-13T11:03:58;98382.75;;;14.79;85.21
17615;BME280;8926;49.720;6.576;2023-03-13T11:06:32;98385.75;;;14.84;85.05
17615;BME280;8926;49.720;6.576;2023-03-13T11:09:14;98376.88;;;14.85;84.74
17615;BME280;8926;49.720;6.576;2023-03-13T11:12:03;98368.84;;;14.87;84.29
17615;BME280;8926;49.720;6.576;2023-03-13T11:14:29;98353.63;;;14.90;84.27
17615;BME280;8926;49.720;6.576;2023-03-13T11:19:54;98340.84;;;14.96;83.81
17615;BME280;8926;49.720;6.576;2023-03-13T11:22:41;98355.91;;;15.03;83.28
17615;BME280;8926;49.720;6.576;2023-03-13T11:25:19;98339.63;;;15.08;83.27
17615;BME280;8926;49.720;6.576;2023-03-13T11:27:53;98347.91;;;15.13;82.96
17615;BME280;8926;49.720;6.576;2023-03-13T11:31:18;98347.91;;;15.13;82.78
17615;BME280;8926;49.720;6.576;2023-03-13T11:36:11;98344.59;;;15.11;83.20
17615;BME280;8926;49.720;6.576;2023-03-13T11:38:44;98335.75;;;15.12;83.31
17615;BME280;8926;49.720;6.576;2023-03-13T11:52:15;98319.22;;;15.02;84.75
17615;BME280;8926;49.720;6.576;2023-03-13T11:57:24;98316.22;;;14.97;86.84
17615;BME280;8926;49.720;6.576;2023-03-13T12:00:14;98313.78;;;14.85;87.73
17615;BME280;8926;49.720;6.576;2023-03-13T12:02:54;98309.44;;;14.76;88.75
17615;BME280;8926;49.720;6.576;2023-03-13T12:05:21;98311.69;;;14.71;89.33
17615;BME280;8926;49.720;6.576;2023-03-13T12:08:09;98300.63;;;14.68;90.07
17615;BME280;8926;49.720;6.576;2023-03-13T12:10:39;98297.84;;;14.69;90.34
17615;BME280;8926;49.720;6.576;2023-03-13T12:13:21;98305.75;;;14.69;91.18
17615;BME280;8926;49.720;6.576;2023-03-13T12:15:55;98301.22;;;14.62;90.89
17615;BME280;8926;49.720;6.576;2023-03-13T12:18:37;98300.19;;;14.54;92.21
17615;BME280;8926;49.720;6.576;2023-03-13T12:24:20;98279.97;;;14.55;92.49
17615;BME280;8926;49.720;6.576;2023-03-13T12:29:36;98254.06;;;14.60;93.00
17615;BME280;8926;49.720;6.576;2023-03-13T12:32:18;98258.03;;;14.64;93.21
17615;BME280;8926;49.720;6.576;2023-03-13T12:37:48;98241.09;;;14.76;93.25
17615;BME280;8926;49.720;6.576;2023-03-13T12:40:25;98224.09;;;14.88;93.15
17615;BME280;8926;49.720;6.576;2023-03-13T12:52:05;98193.69;;;15.12;91.03
17615;BME280;8926;49.720;6.576;2023-03-13T12:59:40;98194.00;;;15.09;92.22
17615;BME280;8926;49.720;6.576;2023-03-13T13:02:15;98172.25;;;14.99;92.23
17615;BME280;8926;49.720;6.576;2023-03-13T13:04:44;98174.81;;;14.90;92.22
17615;BME280;8926;49.720;6.576;2023-03-13T13:07:21;98178.72;;;14.86;92.45
17615;BME280;8926;49.720;6.576;2023-03-13T13:10:23;98159.16;;;14.81;92.59
17615;BME280;8926;49.720;6.576;2023-03-13T13:13:29;98155.31;;;14.75;93.40
17615;BME280;8926;49.720;6.576;2023-03-13T13:18:28;98157.34;;;14.64;94.91
17615;BME280;8926;49.720;6.576;2023-03-13T13:23:38;98143.97;;;14.57;94.78
17615;BME280;8926;49.720;6.576;2023-03-13T13:34:53;98087.88;;;14.31;97.62
17615;BME280;8926;49.720;6.576;2023-03-13T13:39:46;98061.69;;;14.39;96.96
17615;BME280;8926;49.720;6.576;2023-03-13T13:45:23;98057.88;;;14.51;97.05
17615;BME280;8926;49.720;6.576;2023-03-13T13:47:49;98041.84;;;14.62;96.16
17615;BME280;8926;49.720;6.576;2023-03-13T13:50:24;98031.41;;;14.70;95.93
17615;BME280;8926;49.720;6.576;2023-03-13T13:52:50;98034.69;;;14.72;95.19
17615;BME280;8926;49.720;6.576;2023-03-13T13:57:51;98026.75;;;14.64;95.42
17615;BME280;8926;49.720;6.576;2023-03-13T14:00:28;98028.41;;;14.65;94.97
17615;BME280;8926;49.720;6.576;2023-03-13T14:02:58;98032.63;;;14.58;95.60
17615;BME280;8926;49.720;6.576;2023-03-13T14:05:26;98027.38;;;14.58;95.66
17615;BME280;8926;49.720;6.576;2023-03-13T14:11:21;98043.09;;;14.50;96.88
17615;BME280;8926;49.720;6.576;2023-03-13T14:14:08;98032.22;;;14.45;97.69
17615;BME280;8926;49.720;6.576;2023-03-13T14:16:36;98064.31;;;14.39;97.87
17615;BME280;8926;49.720;6.576;2023-03-13T14:19:02;98052.41;;;14.44;94.02
17615;BME280;8926;49.720;6.576;2023-03-13T14:21:27;98042.63;;;14.54;92.61
17615;BME280;8926;49.720;6.576;2023-03-13T14:23:53;98024.28;;;14.63;91.99
17615;BME280;8926;49.720;6.576;2023-03-13T14:26:24;97996.88;;;14.65;91.93
17615;BME280;8926;49.720;6.576;2023-03-13T14:28:52;97991.28;;;14.68;91.20
17615;BME280;8926;49.720;6.576;2023-03-13T14:31:25;97994.28;;;14.73;90.87
17615;BME280;8926;49.720;6.576;2023-03-13T14:33:51;97974.59;;;14.77;90.23
17615;BME280;8926;49.720;6.576;2023-03-13T14:36:16;97999.94;;;14.86;90.40
17615;BME280;8926;49.720;6.576;2023-03-13T14:39:00;97986.53;;;14.98;90.29
17615;BME280;8926;49.720;6.576;2023-03-13T14:41:31;97966.16;;;15.08;89.65
17615;BME280;8926;49.720;6.576;2023-03-13T14:44:13;97966.88;;;15.18;88.35
17615;BME280;8926;49.720;6.576;2023-03-13T14:46:41;97969.84;;;15.23;86.57